Creelsboro, Kentucky
Current Conditions -  °F | °C
As of 1:56 PM on Monday 24 Nov 2014 (Local Time) from KEKQ Reporting Station
Clear Clear  
Wind Chill: 62°   Ceiling: Unl
Heat Index: 62°   Visibility: 10mi
Dew Point: 40°   Wind: 20mph
Humidity: 44%   Direction: 230°SW
Pressure: 29.77"   Gusts: 25mph
Location:  36.9448°N, 85.1275°W
Report Text: KEKQ 241956Z AUTO 23017G22KT 10SM CLR 17/04 A2977 RMK AO2 T01660044 SLP079
Loading
Personal Weather Stations






























Interactive Weather Map New forecast layout! Learn more

10-Day Weather Forecast

Advertisements
Track Severe Weather on mobile